Airfield :







YOU CAN JOIN US ON...

 
LOGIN :

Register | Disclaimer

   EN    FR    IT 

 









Legend :    VFR   Marginal VFR   IFR   Intensive IFR   Very Intensive IFR
Visi :
Ceiling :
>= 8 km
>= 3000ft
5 to 8 km
1000 to 3000 ft
1500m to 5 km
500 to 1000 ft
800 to 1500m
200 to 500 ft
< 800m
< 200 ft
Symbols :   Thunderstorms  Fog  Heavy snow  Heavy precipitations  Wind > 20 kt






- Airport Elevation : 72 ft
- IATA code : YDF


CYDF - Deer Lake

CURRENT METAR :
  • 242300Z 25006KT 15SM BKN210 08/M08 A3021 RMK CI5 SLP231

EXPIRED METARs :
  • 242200Z 26008KT 15SM SCT190 09/M07 A3021 RMK CI3 SLP231
  • 242100Z 26009KT 15SM FEW210 10/M06 A3020 RMK CI2 SLP229

TAF TAF CYDF
Valid from the 24 at 20:00 until the 25 at 08:00 UTC


241930Z 2420/2508 28015G25KT P6SM SCT180
FM242200 26010KT P6SM FEW180
BECMG 2500/2502 25005KT RMK NXT FCST BY 250200Z
CZQX FIR / North America



MET'MAP, your aeronautical weather chart ! - Copyright ORBIFLY December 2007 - Disclaimer

ORBIFLY MET'MAP TEAM :

Programming & Development : Alexandra Zaïnal
Concept & original design : Baudouin d'Aumeries
Assistance for programming : Marc-Olivier Méhu
Technical & hardware support : Manuel Goepfert

Contact : metmap@orbifly.com




SOURCES & CREDITS :

   NOAA